createdAt,value
2017-02-16T00:04:17.641Z,282.5
2017-02-16T00:10:17.878Z,281.9
2017-02-16T00:21:18.719Z,282.4
2017-02-16T00:32:17.674Z,282.3
2017-02-16T00:43:18.574Z,282.2
2017-02-16T00:54:17.435Z,282.2
2017-02-16T01:05:18.131Z,283.1
2017-02-16T01:14:18.107Z,283.4
2017-02-16T01:20:18.411Z,283.7
2017-02-16T01:26:17.739Z,283.7
2017-02-16T01:32:18.553Z,283.6
2017-02-16T01:38:18.283Z,283.7
2017-02-16T01:44:18.438Z,283.5
2017-02-16T01:50:17.831Z,283.9
2017-02-16T01:56:17.620Z,283.7
2017-02-16T02:02:17.679Z,283.8
2017-02-16T02:08:17.994Z,283.8
2017-02-16T02:14:19.145Z,284.1
2017-02-16T02:25:18.206Z,284.6
2017-02-16T02:36:17.979Z,283.5
2017-02-16T02:47:17.378Z,283.8
2017-02-16T02:58:18.259Z,283.7
2017-02-16T03:09:17.870Z,283.7
2017-02-16T03:20:18.121Z,284
2017-02-16T03:31:17.809Z,283.7
2017-02-16T03:42:17.922Z,283.8
2017-02-16T03:53:18.705Z,283.8
2017-02-16T04:04:17.746Z,283.4
2017-02-16T04:15:17.645Z,283.9
2017-02-16T04:26:18.128Z,283.6
2017-02-16T04:37:17.662Z,284
2017-02-16T04:48:17.490Z,284
2017-02-16T04:59:18.437Z,283.7
2017-02-16T05:10:18.569Z,283.7
2017-02-16T05:21:18.166Z,283.3
2017-02-16T05:32:17.754Z,283.6
2017-02-16T05:43:18.057Z,283.7
2017-02-16T05:54:17.890Z,283.6
2017-02-16T06:05:18.304Z,283.7
2017-02-16T06:16:18.354Z,283.5
2017-02-16T06:27:17.996Z,283.5
2017-02-16T06:38:17.794Z,283.7
2017-02-16T06:49:18.332Z,283.4
2017-02-16T07:00:17.718Z,283.9
2017-02-16T07:11:18.227Z,283.5
2017-02-16T07:22:17.966Z,283.8
2017-02-16T07:33:18.340Z,284
2017-02-16T07:44:18.149Z,284.2
2017-02-16T07:55:17.676Z,283.8
2017-02-16T08:06:18.192Z,284.4
2017-02-16T08:17:18.498Z,285
2017-02-16T08:28:17.836Z,284.9
2017-02-16T08:39:17.630Z,285.5
2017-02-16T08:50:18.041Z,285.5
2017-02-16T09:01:18.078Z,285.4
2017-02-16T09:12:18.150Z,285.9
2017-02-16T09:22:17.807Z,285.6
2017-02-16T09:28:17.928Z,285.4
2017-02-16T09:34:18.081Z,284.6
2017-02-16T09:40:18.689Z,284.9
2017-02-16T09:46:17.988Z,284.3
2017-02-16T09:52:17.434Z,282.4
2017-02-16T09:58:17.934Z,283.3
2017-02-16T10:04:18.154Z,283.5
2017-02-16T10:10:18.550Z,285.5
2017-02-16T10:16:17.876Z,281.9
2017-02-16T10:22:19.595Z,281.6
2017-02-16T10:33:18.744Z,284.1
2017-02-16T10:44:18.095Z,281.1
2017-02-16T10:55:18.566Z,283.1
2017-02-16T11:06:17.757Z,285.4
2017-02-16T11:17:17.415Z,293.9
2017-02-16T11:28:17.805Z,285.8
2017-02-16T11:39:17.570Z,283.8
2017-02-16T11:50:18.290Z,286.6
2017-02-16T12:01:18.280Z,286.7
2017-02-16T12:12:18.199Z,285.7
2017-02-16T12:23:18.244Z,283.8
2017-02-16T12:34:17.778Z,286.4
2017-02-16T12:45:18.019Z,286.6
2017-02-16T12:56:17.921Z,285.6
2017-02-16T13:07:18.012Z,284.7
2017-02-16T13:18:17.759Z,285
2017-02-16T13:26:18.749Z,285.5
2017-02-16T13:32:17.521Z,285.5
2017-02-16T13:38:18.587Z,286.6
2017-02-16T13:44:18.686Z,286.4
2017-02-16T13:50:18.334Z,285.3
2017-02-16T13:56:18.734Z,284.2
2017-02-16T14:02:17.815Z,286
2017-02-16T14:08:18.698Z,285.6
2017-02-16T14:14:18.102Z,287.1
2017-02-16T14:20:18.762Z,287.4
2017-02-16T14:26:18.787Z,286.1
2017-02-16T14:37:18.079Z,285.3
2017-02-16T14:48:17.774Z,286.2
2017-02-16T14:59:17.771Z,287.8
2017-02-16T15:10:17.833Z,286.9
2017-02-16T15:21:18.293Z,285.4
2017-02-16T15:32:18.087Z,284.5
2017-02-16T15:43:18.369Z,286.9
2017-02-16T15:54:18.777Z,285.3
2017-02-16T16:05:18.016Z,285.1
2017-02-16T16:16:17.582Z,283.8
2017-02-16T16:27:18.114Z,283.6
2017-02-16T16:38:17.817Z,282.3
2017-02-16T16:49:17.910Z,282.3
2017-02-16T17:00:18.000Z,281
2017-02-16T17:11:17.730Z,282.4
2017-02-16T17:22:17.397Z,282
2017-02-16T17:33:17.662Z,282.8
2017-02-16T17:44:17.757Z,282.5
2017-02-16T17:55:17.336Z,283.2
2017-02-16T18:06:17.718Z,282.8
2017-02-16T18:17:17.896Z,283.4
2017-02-16T18:28:18.615Z,282.8
2017-02-16T18:39:18.505Z,283.2
2017-02-16T18:50:17.890Z,282.8
2017-02-16T19:01:18.354Z,282.7
2017-02-16T19:12:18.115Z,282.8
2017-02-16T19:23:18.063Z,282.6
2017-02-16T19:34:17.428Z,282.5
2017-02-16T19:45:18.255Z,281.5
2017-02-16T19:56:18.146Z,283.1
2017-02-16T20:07:18.741Z,282.5
2017-02-16T20:18:18.361Z,283.3
2017-02-16T20:29:17.799Z,284.5
2017-02-16T20:40:18.068Z,284.6
2017-02-16T20:51:17.743Z,284.5
2017-02-16T21:02:18.042Z,284.5
2017-02-16T21:13:18.637Z,284.8
2017-02-16T21:24:17.686Z,284.4
2017-02-16T21:35:18.405Z,283.4
2017-02-16T21:46:18.042Z,283
2017-02-16T21:57:17.718Z,283.6
2017-02-16T22:08:18.826Z,283.8
2017-02-16T22:19:18.199Z,283.6
2017-02-16T22:30:18.364Z,283.1
2017-02-16T22:41:18.500Z,283.8
2017-02-16T22:52:18.227Z,283.5
2017-02-16T23:03:17.752Z,283.8
2017-02-16T23:14:18.290Z,284.2
2017-02-16T23:25:17.962Z,284.7
2017-02-16T23:36:17.559Z,284.7
2017-02-16T23:47:17.726Z,284.1
2017-02-16T23:58:17.739Z,283.1
